createdAt,value
2018-10-12T00:02:35.392Z,12.9
2018-10-12T00:07:37.861Z,13
2018-10-12T00:12:40.387Z,13.1
2018-10-12T00:17:42.774Z,13.3
2018-10-12T00:22:45.237Z,13.3
2018-10-12T00:27:47.685Z,13.3
2018-10-12T00:32:50.166Z,13.3
2018-10-12T00:37:52.598Z,13.3
2018-10-12T00:42:55.059Z,13.1
2018-10-12T00:47:57.504Z,13.1
2018-10-12T00:52:59.980Z,13.1
2018-10-12T00:58:02.438Z,13.1
2018-10-12T01:03:04.908Z,13
2018-10-12T01:08:07.333Z,13
2018-10-12T01:13:09.802Z,12.9
2018-10-12T01:18:12.276Z,12.8
2018-10-12T01:23:14.709Z,12.7
2018-10-12T01:28:17.270Z,12.7
2018-10-12T01:33:19.660Z,12.6
2018-10-12T01:38:22.079Z,12.6
2018-10-12T01:43:24.536Z,12.5
2018-10-12T01:48:27.024Z,12.5
2018-10-12T01:53:29.459Z,12.5
2018-10-12T01:58:31.928Z,12.5
2018-10-12T02:03:34.392Z,12.5
2018-10-12T02:08:36.825Z,12.4
2018-10-12T02:13:39.300Z,12.4
2018-10-12T02:18:41.761Z,12.5
2018-10-12T02:23:44.208Z,12.5
2018-10-12T02:28:46.680Z,12.5
2018-10-12T02:33:49.216Z,12.5
2018-10-12T02:38:51.572Z,12.5
2018-10-12T02:43:54.051Z,12.4
2018-10-12T02:48:56.520Z,12.3
2018-10-12T02:53:58.943Z,12.3
2018-10-12T02:59:01.439Z,12.2
2018-10-12T03:04:03.884Z,12.2
2018-10-12T03:09:06.325Z,12.3
2018-10-12T03:14:08.821Z,12.2
2018-10-12T03:19:11.253Z,12.2
2018-10-12T03:24:13.702Z,12.2
2018-10-12T03:29:16.160Z,12.2
2018-10-12T03:34:18.640Z,12.2
2018-10-12T03:39:21.085Z,12.3
2018-10-12T03:44:23.555Z,12.2
2018-10-12T03:49:26.094Z,12.2
2018-10-12T03:54:28.469Z,12.2
2018-10-12T03:59:30.925Z,12.3
2018-10-12T04:04:33.425Z,12.3
2018-10-12T04:09:35.817Z,12.2
2018-10-12T04:14:38.285Z,12.1
2018-10-12T04:19:40.749Z,12.1
2018-10-12T04:24:43.237Z,12.1
2018-10-12T04:29:45.671Z,12.1
2018-10-12T04:34:48.199Z,12.1
2018-10-12T04:39:50.566Z,12.1
2018-10-12T04:44:53.019Z,12
2018-10-12T04:49:55.491Z,11.9
2018-10-12T04:54:58.091Z,11.8
2018-10-12T05:00:00.421Z,11.7
2018-10-12T05:05:02.859Z,11.5
2018-10-12T05:10:05.323Z,11.4
2018-10-12T05:15:07.770Z,11.3
2018-10-12T05:20:10.256Z,11.2
2018-10-12T05:25:12.695Z,11.2
2018-10-12T05:30:15.345Z,11.2
2018-10-12T05:35:17.605Z,11.3
2018-10-12T05:40:20.066Z,11.4
2018-10-12T05:45:22.530Z,11.6
2018-10-12T05:50:24.979Z,11.8
2018-10-12T05:55:27.443Z,12
2018-10-12T06:00:29.915Z,12.2
2018-10-12T06:05:32.382Z,12.4
2018-10-12T06:10:34.828Z,12.5
2018-10-12T06:15:37.372Z,12.6
2018-10-12T06:20:39.726Z,13.6
2018-10-12T06:25:42.194Z,16
2018-10-12T06:30:44.737Z,18.7
2018-10-12T06:35:47.169Z,21.1
2018-10-12T06:40:49.598Z,22.5
2018-10-12T06:45:52.098Z,23.5
2018-10-12T06:50:54.483Z,24.1
2018-10-12T06:55:56.931Z,24.4
2018-10-12T07:00:59.425Z,24.6
2018-10-12T07:06:01.913Z,24.5
2018-10-12T07:11:04.330Z,24.1
2018-10-12T07:16:06.774Z,22.9
2018-10-12T07:21:09.242Z,22.4
2018-10-12T07:26:11.701Z,23.2
2018-10-12T07:31:14.162Z,24.9
2018-10-12T07:36:16.681Z,26.9
2018-10-12T07:41:19.070Z,28.5
2018-10-12T07:46:21.538Z,29.3
2018-10-12T07:51:24.008Z,29.9
2018-10-12T07:56:26.450Z,30.5
2018-10-12T08:01:28.916Z,31
2018-10-12T08:06:31.490Z,31.4
2018-10-12T08:11:33.831Z,32
2018-10-12T08:16:36.293Z,31.4
2018-10-12T08:21:38.748Z,31.9
2018-10-12T08:26:41.218Z,31.7
2018-10-12T08:31:43.663Z,30.7
2018-10-12T08:36:46.126Z,29.3
2018-10-12T08:41:48.621Z,27.8
2018-10-12T08:46:51.050Z,26.8
2018-10-12T08:51:53.496Z,25.9
2018-10-12T08:56:55.957Z,25.3
2018-10-12T09:01:58.461Z,24.8
2018-10-12T09:07:00.877Z,24.5
2018-10-12T09:12:03.345Z,24.4
2018-10-12T09:17:05.793Z,23.9
2018-10-12T09:22:08.312Z,23.9
2018-10-12T09:27:10.751Z,24
2018-10-12T09:32:13.193Z,24.3
2018-10-12T09:37:15.717Z,24.7
2018-10-12T09:42:18.090Z,24.9
2018-10-12T09:47:20.557Z,25
2018-10-12T09:52:23.012Z,24.9
2018-10-12T09:57:25.462Z,24.6
2018-10-12T10:02:27.948Z,24.5
2018-10-12T10:07:30.412Z,24.4
2018-10-12T10:12:32.847Z,24.1
2018-10-12T10:17:35.347Z,24.2
2018-10-12T10:22:37.893Z,24.2
2018-10-12T10:32:42.675Z,24.2
2018-10-12T10:37:45.164Z,24.2
2018-10-12T10:42:47.605Z,24.1
2018-10-12T10:47:50.051Z,23.9
2018-10-12T10:52:52.519Z,23.8
2018-10-12T10:57:54.975Z,23.8
2018-10-12T11:02:57.439Z,23.9
2018-10-12T11:07:59.890Z,24
2018-10-12T11:13:02.435Z,24.3
2018-10-12T11:18:04.836Z,24.5
2018-10-12T11:23:07.278Z,24.9
2018-10-12T11:28:09.733Z,25.1
2018-10-12T11:33:12.189Z,25.2
2018-10-12T11:38:14.727Z,25.3
2018-10-12T11:43:17.112Z,25.4
2018-10-12T11:48:19.571Z,25.5
2018-10-12T11:53:22.020Z,25.7
2018-10-12T11:58:24.478Z,26
2018-10-12T12:03:26.954Z,26
2018-10-12T12:08:29.399Z,26.1
2018-10-12T12:13:31.894Z,26.1
2018-10-12T12:18:34.363Z,26.1
2018-10-12T12:23:36.778Z,26.1
2018-10-12T12:28:39.240Z,26
2018-10-12T12:33:41.740Z,25.9
2018-10-12T12:38:44.152Z,25.7
2018-10-12T12:43:46.719Z,25.7
2018-10-12T12:48:49.618Z,25.7
2018-10-12T12:53:51.549Z,25.7
2018-10-12T12:58:53.988Z,25.6
2018-10-12T13:03:56.450Z,25.5
2018-10-12T13:08:58.922Z,25.4
2018-10-12T13:14:01.363Z,25.3
2018-10-12T13:19:03.819Z,25.2
2018-10-12T13:24:06.316Z,25
2018-10-12T13:29:08.770Z,24.9
2018-10-12T13:34:11.307Z,24.8
2018-10-12T13:39:13.676Z,24.9
2018-10-12T13:44:16.142Z,25.2
2018-10-12T13:49:18.600Z,25.1
2018-10-12T13:54:21.088Z,24.9
2018-10-12T13:59:23.491Z,24.7
2018-10-12T14:04:25.948Z,24.5
2018-10-12T14:09:28.415Z,24.2
2018-10-12T14:14:30.891Z,23.9
2018-10-12T14:19:33.537Z,23.7
2018-10-12T14:24:35.797Z,23.6
2018-10-12T14:29:38.295Z,23.4
2018-10-12T14:34:40.703Z,23.1
2018-10-12T14:39:43.177Z,22.9
2018-10-12T14:44:45.669Z,22.7
2018-10-12T14:49:48.094Z,22.6
2018-10-12T14:54:50.564Z,22.6
2018-10-12T14:59:52.996Z,22.5
2018-10-12T15:04:55.542Z,22.4
2018-10-12T15:09:57.910Z,22.4
2018-10-12T15:15:00.373Z,22.3
2018-10-12T15:20:02.848Z,22
2018-10-12T15:25:05.293Z,21.8
2018-10-12T15:30:07.799Z,21.7
2018-10-12T15:35:10.344Z,21.5
2018-10-12T15:40:12.676Z,21.3
2018-10-12T15:45:15.142Z,21.2
2018-10-12T15:50:17.601Z,21
2018-10-12T15:55:20.061Z,20.8
2018-10-12T16:00:22.507Z,20.7
2018-10-12T16:05:24.989Z,20.4
2018-10-12T16:10:27.429Z,20.3
2018-10-12T16:15:30.022Z,20.2
2018-10-12T16:20:32.336Z,20
2018-10-12T16:25:34.814Z,19.7
2018-10-12T16:30:37.447Z,19.4
2018-10-12T16:35:39.722Z,19
2018-10-12T16:40:42.178Z,18.6
2018-10-12T16:45:44.735Z,18.5
2018-10-12T16:50:47.085Z,18.2
2018-10-12T16:55:49.546Z,17.9
2018-10-12T17:00:51.996Z,17.7
2018-10-12T17:05:54.502Z,17.4
2018-10-12T17:10:56.932Z,17.2
2018-10-12T17:15:59.394Z,16.9
2018-10-12T17:21:01.861Z,16.6
2018-10-12T17:26:04.323Z,16.5
2018-10-12T17:31:06.908Z,16.3
2018-10-12T17:36:09.209Z,16.1
2018-10-12T17:41:11.664Z,15.9
2018-10-12T17:46:14.120Z,15.7
2018-10-12T17:51:16.586Z,15.6
2018-10-12T17:56:19.135Z,15.4
2018-10-12T18:01:21.484Z,15.3
2018-10-12T18:06:23.955Z,15.2
2018-10-12T18:11:26.412Z,15.2
2018-10-12T18:16:28.865Z,15.3
2018-10-12T18:21:31.340Z,15.4
2018-10-12T18:26:33.808Z,15.5
2018-10-12T18:31:36.260Z,15.6
2018-10-12T18:36:38.704Z,15.6
2018-10-12T18:41:41.173Z,15.7
2018-10-12T18:46:43.614Z,15.7
2018-10-12T18:51:46.126Z,15.5
2018-10-12T18:56:48.525Z,15.3
2018-10-12T19:01:50.990Z,15.1
2018-10-12T19:06:53.439Z,14.9
2018-10-12T19:11:55.900Z,14.8
2018-10-12T19:16:58.364Z,14.5
2018-10-12T19:22:00.817Z,14.3
2018-10-12T19:27:03.304Z,14.1
2018-10-12T19:32:05.740Z,13.9
2018-10-12T19:42:10.710Z,13.5
2018-10-12T19:47:13.109Z,13.4
2018-10-12T19:52:15.567Z,13.3
2018-10-12T19:57:18.065Z,13.3
2018-10-12T20:02:20.486Z,13.2
2018-10-12T20:07:22.958Z,13.2
2018-10-12T20:12:25.401Z,13.1
2018-10-12T20:17:27.870Z,13
2018-10-12T20:22:30.314Z,13
2018-10-12T20:27:32.789Z,13
2018-10-12T20:32:35.502Z,13
2018-10-12T20:37:37.703Z,13.1
2018-10-12T20:42:40.170Z,13.1
2018-10-12T20:47:42.610Z,13.1
2018-10-12T20:52:45.075Z,13
2018-10-12T20:57:47.549Z,12.9
2018-10-12T21:02:49.983Z,12.9
2018-10-12T21:07:52.513Z,13
2018-10-12T21:12:54.896Z,13
2018-10-12T21:17:57.617Z,12.9
2018-10-12T21:22:59.825Z,13
2018-10-12T21:28:02.336Z,13
2018-10-12T21:33:04.739Z,13
2018-10-12T21:38:07.225Z,13
2018-10-12T21:43:09.643Z,13.1
2018-10-12T21:48:12.138Z,13.1
2018-10-12T21:53:14.549Z,13
2018-10-12T21:58:17.021Z,13
2018-10-12T22:03:19.481Z,12.9
2018-10-12T22:08:21.943Z,12.8
2018-10-12T22:13:24.456Z,12.7
2018-10-12T22:18:26.842Z,12.5
2018-10-12T22:23:29.303Z,12.5
2018-10-12T22:28:31.803Z,12.4
2018-10-12T22:33:34.212Z,12.4
2018-10-12T22:38:36.683Z,12.4
2018-10-12T22:43:39.141Z,12.4
2018-10-12T22:48:41.591Z,12.3
2018-10-12T22:53:44.051Z,12.2
2018-10-12T22:58:46.508Z,12.1
2018-10-12T23:03:48.963Z,12
2018-10-12T23:08:51.425Z,11.8
2018-10-12T23:13:53.905Z,11.7
2018-10-12T23:18:56.338Z,11.5
2018-10-12T23:23:58.792Z,11.4
2018-10-12T23:29:01.243Z,11.3
2018-10-12T23:34:03.724Z,11.2
2018-10-12T23:39:06.211Z,11.1
2018-10-12T23:44:08.638Z,11
2018-10-12T23:49:11.102Z,10.9
2018-10-12T23:54:13.570Z,10.9
2018-10-12T23:59:16.010Z,10.7
